sensor_id;sensor_type;location;lat;lon;timestamp;pressure;altitude;pressure_sealevel;temperature;humidity
10706;BME280;5404;42.656;23.336;2024-02-21T00:00:42;95427.78;;;4.47;72.85
10706;BME280;5404;42.656;23.336;2024-02-21T00:03:08;95430.41;;;4.43;72.51
10706;BME280;5404;42.656;23.336;2024-02-21T00:05:33;95428.81;;;4.42;72.33
10706;BME280;5404;42.656;23.336;2024-02-21T00:07:59;95423.09;;;4.44;72.25
10706;BME280;5404;42.656;23.336;2024-02-21T00:10:25;95423.03;;;4.40;72.38
10706;BME280;5404;42.656;23.336;2024-02-21T00:12:52;95420.69;;;4.39;73.15
10706;BME280;5404;42.656;23.336;2024-02-21T00:15:17;95428.19;;;4.49;72.21
10706;BME280;5404;42.656;23.336;2024-02-21T00:17:44;95406.56;;;4.26;72.98
10706;BME280;5404;42.656;23.336;2024-02-21T00:20:09;95422.50;;;4.34;73.17
10706;BME280;5404;42.656;23.336;2024-02-21T00:22:35;95397.59;;;4.22;72.51
10706;BME280;5404;42.656;23.336;2024-02-21T00:25:01;95416.84;;;4.40;72.75
10706;BME280;5404;42.656;23.336;2024-02-21T00:27:26;95417.91;;;4.35;72.31
10706;BME280;5404;42.656;23.336;2024-02-21T00:29:52;95413.63;;;4.34;72.95
10706;BME280;5404;42.656;23.336;2024-02-21T00:32:18;95415.84;;;4.28;72.96
10706;BME280;5404;42.656;23.336;2024-02-21T00:34:43;95406.47;;;4.22;73.68
10706;BME280;5404;42.656;23.336;2024-02-21T00:37:09;95414.41;;;4.15;73.54
10706;BME280;5404;42.656;23.336;2024-02-21T00:39:34;95422.59;;;4.19;73.27
10706;BME280;5404;42.656;23.336;2024-02-21T00:42:01;95409.16;;;4.22;72.72
10706;BME280;5404;42.656;23.336;2024-02-21T00:44:26;95418.31;;;4.18;72.94
10706;BME280;5404;42.656;23.336;2024-02-21T00:46:51;95400.94;;;4.15;73.34
10706;BME280;5404;42.656;23.336;2024-02-21T00:49:17;95406.03;;;4.20;73.09
10706;BME280;5404;42.656;23.336;2024-02-21T00:51:43;95410.78;;;4.08;73.48
10706;BME280;5404;42.656;23.336;2024-02-21T00:54:08;95402.19;;;4.02;74.26
10706;BME280;5404;42.656;23.336;2024-02-21T00:56:34;95410.00;;;4.07;73.91
10706;BME280;5404;42.656;23.336;2024-02-21T00:58:59;95397.25;;;4.04;74.54
10706;BME280;5404;42.656;23.336;2024-02-21T01:01:25;95402.19;;;4.02;73.99
10706;BME280;5404;42.656;23.336;2024-02-21T01:03:50;95401.25;;;3.94;74.45
10706;BME280;5404;42.656;23.336;2024-02-21T01:06:19;95372.56;;;3.86;74.52
10706;BME280;5404;42.656;23.336;2024-02-21T01:08:45;95383.72;;;3.85;74.86
10706;BME280;5404;42.656;23.336;2024-02-21T01:11:10;95380.31;;;3.88;74.62
10706;BME280;5404;42.656;23.336;2024-02-21T01:13:36;95377.19;;;3.86;75.23
10706;BME280;5404;42.656;23.336;2024-02-21T01:16:01;95377.53;;;3.84;75.09
10706;BME280;5404;42.656;23.336;2024-02-21T01:18:27;95370.16;;;3.81;75.34
10706;BME280;5404;42.656;23.336;2024-02-21T01:20:52;95383.44;;;3.90;75.13
10706;BME280;5404;42.656;23.336;2024-02-21T01:23:17;95381.09;;;3.88;75.04
10706;BME280;5404;42.656;23.336;2024-02-21T01:25:43;95384.16;;;3.87;74.68
10706;BME280;5404;42.656;23.336;2024-02-21T01:28:08;95375.00;;;3.91;74.76
10706;BME280;5404;42.656;23.336;2024-02-21T01:30:34;95368.81;;;3.91;75.00
10706;BME280;5404;42.656;23.336;2024-02-21T01:33:00;95367.69;;;3.92;74.35
10706;BME280;5404;42.656;23.336;2024-02-21T01:35:25;95375.22;;;4.02;74.45
10706;BME280;5404;42.656;23.336;2024-02-21T01:37:51;95366.69;;;4.00;74.60
10706;BME280;5404;42.656;23.336;2024-02-21T01:40:17;95371.59;;;4.14;74.13
10706;BME280;5404;42.656;23.336;2024-02-21T01:42:42;95362.72;;;4.13;73.72
10706;BME280;5404;42.656;23.336;2024-02-21T01:45:08;95365.56;;;4.20;73.60
10706;BME280;5404;42.656;23.336;2024-02-21T01:47:34;95360.97;;;4.21;72.82
10706;BME280;5404;42.656;23.336;2024-02-21T01:50:00;95354.09;;;4.23;72.85
10706;BME280;5404;42.656;23.336;2024-02-21T01:52:28;95358.91;;;4.33;72.17
10706;BME280;5404;42.656;23.336;2024-02-21T01:54:53;95352.31;;;4.31;72.18
10706;BME280;5404;42.656;23.336;2024-02-21T01:57:19;95360.31;;;4.27;72.50
10706;BME280;5404;42.656;23.336;2024-02-21T01:59:45;95356.50;;;4.28;71.21
10706;BME280;5404;42.656;23.336;2024-02-21T02:02:11;95361.69;;;4.37;70.70
10706;BME280;5404;42.656;23.336;2024-02-21T02:04:38;95344.28;;;4.34;71.29
10706;BME280;5404;42.656;23.336;2024-02-21T02:07:06;95356.47;;;4.48;70.38
10706;BME280;5404;42.656;23.336;2024-02-21T02:09:32;95359.25;;;4.51;70.19
10706;BME280;5404;42.656;23.336;2024-02-21T02:11:58;95342.00;;;4.37;70.11
10706;BME280;5404;42.656;23.336;2024-02-21T02:14:25;95367.25;;;4.48;70.79
10706;BME280;5404;42.656;23.336;2024-02-21T02:16:50;95357.47;;;4.59;70.72
10706;BME280;5404;42.656;23.336;2024-02-21T02:19:15;95353.78;;;4.48;71.00
10706;BME280;5404;42.656;23.336;2024-02-21T02:21:46;95355.34;;;4.49;71.47
10706;BME280;5404;42.656;23.336;2024-02-21T02:24:13;95350.25;;;4.44;70.67
10706;BME280;5404;42.656;23.336;2024-02-21T02:26:39;95320.72;;;4.31;70.88
10706;BME280;5404;42.656;23.336;2024-02-21T02:29:05;95350.59;;;4.42;71.31
10706;BME280;5404;42.656;23.336;2024-02-21T02:31:30;95340.53;;;4.39;71.04
10706;BME280;5404;42.656;23.336;2024-02-21T02:33:56;95345.53;;;4.41;71.60
10706;BME280;5404;42.656;23.336;2024-02-21T02:36:21;95327.59;;;4.29;71.06
10706;BME280;5404;42.656;23.336;2024-02-21T02:38:47;95337.75;;;4.36;71.67
10706;BME280;5404;42.656;23.336;2024-02-21T02:41:12;95340.44;;;4.36;72.11
10706;BME280;5404;42.656;23.336;2024-02-21T02:43:37;95340.53;;;4.39;72.18
10706;BME280;5404;42.656;23.336;2024-02-21T02:46:03;95342.84;;;4.41;71.46
10706;BME280;5404;42.656;23.336;2024-02-21T02:48:29;95316.31;;;4.23;71.28
10706;BME280;5404;42.656;23.336;2024-02-21T02:50:54;95345.84;;;4.36;72.09
10706;BME280;5404;42.656;23.336;2024-02-21T02:53:20;95339.75;;;4.39;72.17
10706;BME280;5404;42.656;23.336;2024-02-21T02:55:45;95348.25;;;4.41;71.29
10706;BME280;5404;42.656;23.336;2024-02-21T02:58:11;95350.25;;;4.44;71.29
10706;BME280;5404;42.656;23.336;2024-02-21T03:00:37;95349.16;;;4.48;71.41
10706;BME280;5404;42.656;23.336;2024-02-21T03:03:04;95342.16;;;4.44;71.85
10706;BME280;5404;42.656;23.336;2024-02-21T03:05:29;95343.63;;;4.41;71.10
10706;BME280;5404;42.656;23.336;2024-02-21T03:07:55;95340.56;;;4.43;71.22
10706;BME280;5404;42.656;23.336;2024-02-21T03:10:20;95345.53;;;4.41;71.55
10706;BME280;5404;42.656;23.336;2024-02-21T03:12:46;95351.31;;;4.39;71.79
10706;BME280;5404;42.656;23.336;2024-02-21T03:15:12;95356.75;;;4.43;71.84
10706;BME280;5404;42.656;23.336;2024-02-21T03:17:37;95362.16;;;4.43;71.30
10706;BME280;5404;42.656;23.336;2024-02-21T03:20:04;95358.69;;;4.42;71.44
10706;BME280;5404;42.656;23.336;2024-02-21T03:22:36;95366.72;;;4.39;71.50
10706;BME280;5404;42.656;23.336;2024-02-21T03:25:02;95359.75;;;4.38;71.74
10706;BME280;5404;42.656;23.336;2024-02-21T03:27:27;95362.88;;;4.40;71.51
10706;BME280;5404;42.656;23.336;2024-02-21T03:29:53;95366.00;;;4.42;71.88
10706;BME280;5404;42.656;23.336;2024-02-21T03:32:18;95359.75;;;4.38;72.01
10706;BME280;5404;42.656;23.336;2024-02-21T03:34:44;95369.00;;;4.37;71.62
10706;BME280;5404;42.656;23.336;2024-02-21T03:37:09;95365.84;;;4.34;71.45
10706;BME280;5404;42.656;23.336;2024-02-21T03:39:35;95372.81;;;4.36;71.99
10706;BME280;5404;42.656;23.336;2024-02-21T03:42:00;95375.81;;;4.30;71.49
10706;BME280;5404;42.656;23.336;2024-02-21T03:44:30;95372.38;;;4.33;71.89
10706;BME280;5404;42.656;23.336;2024-02-21T03:46:55;95376.44;;;4.43;71.00
10706;BME280;5404;42.656;23.336;2024-02-21T03:49:20;95379.78;;;4.37;71.08
10706;BME280;5404;42.656;23.336;2024-02-21T03:51:46;95378.56;;;4.34;72.03
10706;BME280;5404;42.656;23.336;2024-02-21T03:54:11;95381.19;;;4.30;71.78
10706;BME280;5404;42.656;23.336;2024-02-21T03:56:37;95378.06;;;4.28;72.25
10706;BME280;5404;42.656;23.336;2024-02-21T03:59:05;95366.44;;;4.24;72.01
10706;BME280;5404;42.656;23.336;2024-02-21T04:01:31;95377.63;;;4.26;72.21
10706;BME280;5404;42.656;23.336;2024-02-21T04:03:56;95379.19;;;4.27;71.90
10706;BME280;5404;42.656;23.336;2024-02-21T04:06:22;95383.31;;;4.21;72.33
10706;BME280;5404;42.656;23.336;2024-02-21T04:08:47;95386.81;;;4.22;72.36
10706;BME280;5404;42.656;23.336;2024-02-21T04:11:13;95373.66;;;4.20;71.95
10706;BME280;5404;42.656;23.336;2024-02-21T04:13:38;95379.44;;;4.19;72.70
10706;BME280;5404;42.656;23.336;2024-02-21T04:16:04;95366.94;;;4.11;72.75
10706;BME280;5404;42.656;23.336;2024-02-21T04:18:31;95356.00;;;4.04;72.17
10706;BME280;5404;42.656;23.336;2024-02-21T04:20:56;95369.78;;;4.18;72.06
10706;BME280;5404;42.656;23.336;2024-02-21T04:23:21;95375.53;;;4.16;72.28
10706;BME280;5404;42.656;23.336;2024-02-21T04:25:47;95374.78;;;4.19;72.32
10706;BME280;5404;42.656;23.336;2024-02-21T04:28:12;95377.00;;;4.14;72.23
10706;BME280;5404;42.656;23.336;2024-02-21T04:30:37;95359.91;;;4.06;72.76
10706;BME280;5404;42.656;23.336;2024-02-21T04:33:03;95372.25;;;4.07;72.72
10706;BME280;5404;42.656;23.336;2024-02-21T04:35:28;95365.66;;;4.05;72.90
10706;BME280;5404;42.656;23.336;2024-02-21T04:37:54;95373.59;;;3.98;72.70
10706;BME280;5404;42.656;23.336;2024-02-21T04:40:20;95371.25;;;3.96;72.92
10706;BME280;5404;42.656;23.336;2024-02-21T04:42:46;95375.06;;;3.95;73.08
10706;BME280;5404;42.656;23.336;2024-02-21T04:45:11;95374.72;;;3.97;72.92
10706;BME280;5404;42.656;23.336;2024-02-21T04:47:37;95375.72;;;3.88;73.47
10706;BME280;5404;42.656;23.336;2024-02-21T04:50:03;95372.94;;;3.85;73.47
10706;BME280;5404;42.656;23.336;2024-02-21T04:52:28;95369.66;;;3.76;73.20
10706;BME280;5404;42.656;23.336;2024-02-21T04:54:55;95346.31;;;3.48;73.70
10706;BME280;5404;42.656;23.336;2024-02-21T04:57:21;95371.94;;;3.74;73.35
10706;BME280;5404;42.656;23.336;2024-02-21T04:59:46;95372.28;;;3.72;74.17
10706;BME280;5404;42.656;23.336;2024-02-21T05:02:15;95366.81;;;3.69;73.78
10706;BME280;5404;42.656;23.336;2024-02-21T05:04:41;95359.09;;;3.51;73.72
10706;BME280;5404;42.656;23.336;2024-02-21T05:07:07;95375.00;;;3.57;73.57
10706;BME280;5404;42.656;23.336;2024-02-21T05:09:33;95377.19;;;3.51;74.72
10706;BME280;5404;42.656;23.336;2024-02-21T05:11:59;95373.25;;;3.48;74.70
10706;BME280;5404;42.656;23.336;2024-02-21T05:14:27;95380.94;;;3.46;75.11
10706;BME280;5404;42.656;23.336;2024-02-21T05:16:53;95380.06;;;3.42;74.96
10706;BME280;5404;42.656;23.336;2024-02-21T05:19:19;95387.00;;;3.43;74.63
10706;BME280;5404;42.656;23.336;2024-02-21T05:21:44;95395.53;;;3.45;74.67
10706;BME280;5404;42.656;23.336;2024-02-21T05:24:10;95391.72;;;3.46;74.92
10706;BME280;5404;42.656;23.336;2024-02-21T05:26:35;95386.22;;;3.43;74.58
10706;BME280;5404;42.656;23.336;2024-02-21T05:29:01;95386.56;;;3.41;74.17
10706;BME280;5404;42.656;23.336;2024-02-21T05:31:43;95361.84;;;3.20;74.30
10706;BME280;5404;42.656;23.336;2024-02-21T05:34:20;95390.84;;;3.42;74.89
10706;BME280;5404;42.656;23.336;2024-02-21T05:36:46;95397.88;;;3.47;74.19
10706;BME280;5404;42.656;23.336;2024-02-21T05:39:12;95389.69;;;3.59;74.42
10706;BME280;5404;42.656;23.336;2024-02-21T05:41:37;95365.63;;;3.50;73.77
10706;BME280;5404;42.656;23.336;2024-02-21T05:44:03;95392.84;;;3.80;73.84
10706;BME280;5404;42.656;23.336;2024-02-21T05:46:28;95394.66;;;3.92;72.46
10706;BME280;5404;42.656;23.336;2024-02-21T05:48:54;95390.97;;;4.00;72.52
10706;BME280;5404;42.656;23.336;2024-02-21T05:51:19;95397.59;;;4.03;72.28
10706;BME280;5404;42.656;23.336;2024-02-21T05:53:45;95395.38;;;4.08;71.56
10706;BME280;5404;42.656;23.336;2024-02-21T05:56:11;95404.75;;;4.14;71.70
10706;BME280;5404;42.656;23.336;2024-02-21T05:58:37;95397.38;;;4.11;71.51
10706;BME280;5404;42.656;23.336;2024-02-21T06:01:02;95406.41;;;4.19;71.64
10706;BME280;5404;42.656;23.336;2024-02-21T06:03:29;95408.09;;;4.27;71.25
10706;BME280;5404;42.656;23.336;2024-02-21T06:05:54;95405.81;;;4.29;71.09
10706;BME280;5404;42.656;23.336;2024-02-21T06:08:20;95402.00;;;4.30;70.62
10706;BME280;5404;42.656;23.336;2024-02-21T06:10:45;95402.78;;;4.30;70.85
10706;BME280;5404;42.656;23.336;2024-02-21T06:13:11;95406.31;;;4.34;70.01
10706;BME280;5404;42.656;23.336;2024-02-21T06:15:36;95412.22;;;4.59;68.53
10706;BME280;5404;42.656;23.336;2024-02-21T06:18:02;95424.28;;;4.65;68.91
10706;BME280;5404;42.656;23.336;2024-02-21T06:20:27;95420.56;;;4.93;67.94
10706;BME280;5404;42.656;23.336;2024-02-21T06:22:53;95415.50;;;4.91;68.03
10706;BME280;5404;42.656;23.336;2024-02-21T06:25:19;95428.56;;;5.08;67.36
10706;BME280;5404;42.656;23.336;2024-02-21T06:27:44;95427.13;;;5.15;66.96
10706;BME280;5404;42.656;23.336;2024-02-21T06:30:10;95416.00;;;5.20;66.40
10706;BME280;5404;42.656;23.336;2024-02-21T06:32:35;95431.19;;;5.28;66.58
10706;BME280;5404;42.656;23.336;2024-02-21T06:35:01;95430.84;;;5.29;66.71
10706;BME280;5404;42.656;23.336;2024-02-21T06:37:29;95435.91;;;5.31;66.67
10706;BME280;5404;42.656;23.336;2024-02-21T06:39:55;95439.16;;;5.40;66.45
10706;BME280;5404;42.656;23.336;2024-02-21T06:42:20;95436.44;;;5.40;65.95
10706;BME280;5404;42.656;23.336;2024-02-21T06:44:46;95393.69;;;5.23;65.77
10706;BME280;5404;42.656;23.336;2024-02-21T06:47:12;95443.03;;;5.65;65.36
10706;BME280;5404;42.656;23.336;2024-02-21T06:49:37;95442.25;;;5.65;65.18
10706;BME280;5404;42.656;23.336;2024-02-21T06:52:04;95448.00;;;5.63;65.64
10706;BME280;5404;42.656;23.336;2024-02-21T06:54:30;95455.31;;;5.85;64.96
10706;BME280;5404;42.656;23.336;2024-02-21T06:56:55;95457.19;;;5.81;64.97
10706;BME280;5404;42.656;23.336;2024-02-21T06:59:21;95462.53;;;6.01;64.50
10706;BME280;5404;42.656;23.336;2024-02-21T07:01:53;95454.53;;;6.08;64.37
10706;BME280;5404;42.656;23.336;2024-02-21T07:04:19;95449.72;;;5.98;64.48
10706;BME280;5404;42.656;23.336;2024-02-21T07:06:45;95453.16;;;5.95;64.56
10706;BME280;5404;42.656;23.336;2024-02-21T07:09:10;95462.09;;;5.99;64.61
10706;BME280;5404;42.656;23.336;2024-02-21T07:11:36;95455.81;;;5.91;64.97
10706;BME280;5404;42.656;23.336;2024-02-21T07:14:01;95451.84;;;6.11;64.58
10706;BME280;5404;42.656;23.336;2024-02-21T07:16:27;95456.53;;;6.14;64.50
10706;BME280;5404;42.656;23.336;2024-02-21T07:18:54;95457.31;;;6.15;64.43
10706;BME280;5404;42.656;23.336;2024-02-21T07:21:20;95451.56;;;6.16;64.35
10706;BME280;5404;42.656;23.336;2024-02-21T07:23:45;95450.81;;;6.19;64.58
10706;BME280;5404;42.656;23.336;2024-02-21T07:26:11;95466.13;;;6.08;64.70
10706;BME280;5404;42.656;23.336;2024-02-21T07:28:36;95463.88;;;6.14;64.36
10706;BME280;5404;42.656;23.336;2024-02-21T07:31:03;95431.84;;;5.89;64.37
10706;BME280;5404;42.656;23.336;2024-02-21T07:33:28;95460.75;;;6.12;64.52
10706;BME280;5404;42.656;23.336;2024-02-21T07:35:53;95456.91;;;6.13;64.62
10706;BME280;5404;42.656;23.336;2024-02-21T07:38:19;95460.50;;;5.94;65.12
10706;BME280;5404;42.656;23.336;2024-02-21T07:40:45;95466.13;;;6.08;64.92
10706;BME280;5404;42.656;23.336;2024-02-21T07:43:10;95469.34;;;6.17;64.95
10706;BME280;5404;42.656;23.336;2024-02-21T07:45:36;95468.69;;;6.24;64.66
10706;BME280;5404;42.656;23.336;2024-02-21T07:48:02;95455.19;;;6.27;64.50
10706;BME280;5404;42.656;23.336;2024-02-21T07:50:27;95454.19;;;6.39;63.83
10706;BME280;5404;42.656;23.336;2024-02-21T07:52:53;95462.72;;;6.41;63.83
10706;BME280;5404;42.656;23.336;2024-02-21T07:55:18;95452.22;;;6.36;63.46
10706;BME280;5404;42.656;23.336;2024-02-21T07:57:43;95449.59;;;6.43;63.70
10706;BME280;5404;42.656;23.336;2024-02-21T08:00:09;95452.47;;;6.57;63.60
10706;BME280;5404;42.656;23.336;2024-02-21T08:02:40;95452.06;;;6.55;63.42
10706;BME280;5404;42.656;23.336;2024-02-21T08:05:07;95421.81;;;6.20;64.13
10706;BME280;5404;42.656;23.336;2024-02-21T08:07:33;95448.19;;;6.53;63.96
10706;BME280;5404;42.656;23.336;2024-02-21T08:09:58;95436.47;;;6.45;63.47
10706;BME280;5404;42.656;23.336;2024-02-21T08:12:24;95456.00;;;6.61;63.18
10706;BME280;5404;42.656;23.336;2024-02-21T08:14:50;95441.41;;;6.69;62.77
10706;BME280;5404;42.656;23.336;2024-02-21T08:17:16;95444.34;;;6.91;61.94
10706;BME280;5404;42.656;23.336;2024-02-21T08:19:41;95446.38;;;6.97;61.82
10706;BME280;5404;42.656;23.336;2024-02-21T08:22:07;95451.69;;;6.90;61.86
10706;BME280;5404;42.656;23.336;2024-02-21T08:24:32;95451.75;;;6.94;62.05
10706;BME280;5404;42.656;23.336;2024-02-21T08:26:57;95447.66;;;7.11;61.50
10706;BME280;5404;42.656;23.336;2024-02-21T08:29:23;95440.84;;;7.24;61.64
10706;BME280;5404;42.656;23.336;2024-02-21T08:31:48;95449.97;;;7.49;60.40
10706;BME280;5404;42.656;23.336;2024-02-21T08:34:14;95439.06;;;7.42;59.34
10706;BME280;5404;42.656;23.336;2024-02-21T08:36:39;95427.44;;;7.41;60.21
10706;BME280;5404;42.656;23.336;2024-02-21T08:39:04;95437.91;;;7.91;58.55
10706;BME280;5404;42.656;23.336;2024-02-21T08:41:34;95438.84;;;8.12;58.12
10706;BME280;5404;42.656;23.336;2024-02-21T08:43:59;95438.09;;;8.19;57.32
10706;BME280;5404;42.656;23.336;2024-02-21T08:46:25;95431.84;;;8.08;57.23
10706;BME280;5404;42.656;23.336;2024-02-21T08:48:52;95436.06;;;8.02;57.91
10706;BME280;5404;42.656;23.336;2024-02-21T08:51:17;95422.19;;;8.17;56.87
10706;BME280;5404;42.656;23.336;2024-02-21T08:53:48;95429.28;;;8.33;56.35
10706;BME280;5404;42.656;23.336;2024-02-21T08:56:16;95436.69;;;8.36;56.22
10706;BME280;5404;42.656;23.336;2024-02-21T08:58:41;95437.47;;;8.40;55.86
10706;BME280;5404;42.656;23.336;2024-02-21T09:01:07;95430.28;;;8.10;55.92
10706;BME280;5404;42.656;23.336;2024-02-21T09:03:37;95434.09;;;7.95;56.42
10706;BME280;5404;42.656;23.336;2024-02-21T09:06:07;95438.28;;;7.89;56.36
10706;BME280;5404;42.656;23.336;2024-02-21T09:08:33;95451.06;;;7.81;57.08
10706;BME280;5404;42.656;23.336;2024-02-21T09:11:02;95446.09;;;7.94;57.03
10706;BME280;5404;42.656;23.336;2024-02-21T09:13:28;95443.28;;;7.83;57.18
10706;BME280;5404;42.656;23.336;2024-02-21T09:15:55;95450.06;;;8.11;56.17
10706;BME280;5404;42.656;23.336;2024-02-21T09:18:21;95444.91;;;7.92;56.22
10706;BME280;5404;42.656;23.336;2024-02-21T09:20:46;95449.59;;;7.98;56.62
10706;BME280;5404;42.656;23.336;2024-02-21T09:23:13;95416.44;;;8.22;56.15
10706;BME280;5404;42.656;23.336;2024-02-21T09:25:38;95447.28;;;8.62;55.91
10706;BME280;5404;42.656;23.336;2024-02-21T09:28:04;95436.91;;;8.78;54.37
10706;BME280;5404;42.656;23.336;2024-02-21T09:30:31;95433.06;;;8.93;56.17
10706;BME280;5404;42.656;23.336;2024-02-21T09:32:56;95437.00;;;9.14;54.75
10706;BME280;5404;42.656;23.336;2024-02-21T09:35:24;95428.75;;;8.78;55.98
10706;BME280;5404;42.656;23.336;2024-02-21T09:37:52;95443.09;;;8.82;56.72
10706;BME280;5404;42.656;23.336;2024-02-21T09:40:17;95436.13;;;8.88;55.38
10706;BME280;5404;42.656;23.336;2024-02-21T09:42:43;95446.91;;;8.67;56.53
10706;BME280;5404;42.656;23.336;2024-02-21T09:45:23;95446.88;;;8.56;57.58
10706;BME280;5404;42.656;23.336;2024-02-21T09:50:27;95445.16;;;9.14;54.25
10706;BME280;5404;42.656;23.336;2024-02-21T09:52:54;95449.13;;;9.48;53.28
10706;BME280;5404;42.656;23.336;2024-02-21T09:55:20;95440.97;;;9.48;53.30
10706;BME280;5404;42.656;23.336;2024-02-21T09:57:46;95445.63;;;9.37;53.98
10706;BME280;5404;42.656;23.336;2024-02-21T10:00:13;95436.69;;;9.36;54.26
10706;BME280;5404;42.656;23.336;2024-02-21T10:02:47;95427.38;;;9.66;53.35
10706;BME280;5404;42.656;23.336;2024-02-21T10:05:13;95445.66;;;9.87;52.38
10706;BME280;5404;42.656;23.336;2024-02-21T10:07:38;95435.91;;;10.07;51.40
10706;BME280;5404;42.656;23.336;2024-02-21T10:10:05;95435.50;;;9.48;52.02
10706;BME280;5404;42.656;23.336;2024-02-21T10:12:30;95433.97;;;9.75;51.24
10706;BME280;5404;42.656;23.336;2024-02-21T10:15:03;95427.75;;;10.14;50.74
10706;BME280;5404;42.656;23.336;2024-02-21T10:17:28;95424.63;;;10.15;50.53
10706;BME280;5404;42.656;23.336;2024-02-21T10:19:54;95426.56;;;10.29;50.06
10706;BME280;5404;42.656;23.336;2024-02-21T10:22:19;95420.38;;;9.86;50.82
10706;BME280;5404;42.656;23.336;2024-02-21T10:24:46;95416.09;;;9.67;51.30
10706;BME280;5404;42.656;23.336;2024-02-21T10:27:12;95419.97;;;9.73;51.47
10706;BME280;5404;42.656;23.336;2024-02-21T10:29:38;95400.88;;;10.09;50.60
10706;BME280;5404;42.656;23.336;2024-02-21T10:32:10;95374.91;;;9.58;51.46
10706;BME280;5404;42.656;23.336;2024-02-21T10:34:37;95395.88;;;9.75;50.87
10706;BME280;5404;42.656;23.336;2024-02-21T10:37:07;95399.34;;;10.18;49.66
10706;BME280;5404;42.656;23.336;2024-02-21T10:39:34;95377.41;;;10.72;48.45
10706;BME280;5404;42.656;23.336;2024-02-21T10:42:01;95371.41;;;10.94;48.02
10706;BME280;5404;42.656;23.336;2024-02-21T10:44:34;95368.09;;;11.83;45.94
10706;BME280;5404;42.656;23.336;2024-02-21T10:47:09;95363.38;;;12.28;44.12
10706;BME280;5404;42.656;23.336;2024-02-21T10:49:41;95364.66;;;12.50;43.23
10706;BME280;5404;42.656;23.336;2024-02-21T10:55:02;95353.16;;;14.43;39.46
10706;BME280;5404;42.656;23.336;2024-02-21T10:57:29;95350.34;;;15.22;37.50
10706;BME280;5404;42.656;23.336;2024-02-21T10:59:55;95336.00;;;14.39;38.34
10706;BME280;5404;42.656;23.336;2024-02-21T11:02:21;95330.78;;;13.32;39.58
10706;BME280;5404;42.656;23.336;2024-02-21T11:04:47;95325.63;;;15.22;37.21
10706;BME280;5404;42.656;23.336;2024-02-21T11:07:14;95307.88;;;16.66;34.68
10706;BME280;5404;42.656;23.336;2024-02-21T11:09:40;95314.59;;;16.77;33.89
10706;BME280;5404;42.656;23.336;2024-02-21T11:12:06;95317.00;;;17.17;33.54
10706;BME280;5404;42.656;23.336;2024-02-21T11:14:32;95309.03;;;17.82;32.23
10706;BME280;5404;42.656;23.336;2024-02-21T11:16:58;95289.28;;;17.84;31.80
10706;BME280;5404;42.656;23.336;2024-02-21T11:19:27;95312.25;;;18.15;31.60
10706;BME280;5404;42.656;23.336;2024-02-21T11:21:55;95317.31;;;17.44;32.21
10706;BME280;5404;42.656;23.336;2024-02-21T11:24:32;95312.22;;;17.55;32.51
10706;BME280;5404;42.656;23.336;2024-02-21T11:27:19;95312.22;;;18.93;30.36
10706;BME280;5404;42.656;23.336;2024-02-21T11:29:54;95308.53;;;18.65;30.22
10706;BME280;5404;42.656;23.336;2024-02-21T11:32:21;95302.22;;;17.23;32.19
10706;BME280;5404;42.656;23.336;2024-02-21T11:35:00;95310.72;;;14.28;35.38
10706;BME280;5404;42.656;23.336;2024-02-21T11:37:31;95317.28;;;12.64;38.96
10706;BME280;5404;42.656;23.336;2024-02-21T11:39:58;95310.38;;;12.19;40.49
10706;BME280;5404;42.656;23.336;2024-02-21T11:42:27;95222.66;;;10.90;41.84
10706;BME280;5404;42.656;23.336;2024-02-21T11:44:54;95304.88;;;11.44;42.33
10706;BME280;5404;42.656;23.336;2024-02-21T11:47:23;95309.53;;;10.88;43.65
10706;BME280;5404;42.656;23.336;2024-02-21T11:49:49;95307.69;;;10.67;44.28
10706;BME280;5404;42.656;23.336;2024-02-21T11:52:20;95300.91;;;10.27;44.28
10706;BME280;5404;42.656;23.336;2024-02-21T11:54:47;95304.06;;;10.04;44.26
10706;BME280;5404;42.656;23.336;2024-02-21T11:57:13;95301.00;;;9.85;45.47
10706;BME280;5404;42.656;23.336;2024-02-21T11:59:40;95294.81;;;9.66;44.91
10706;BME280;5404;42.656;23.336;2024-02-21T12:02:05;95307.66;;;9.59;45.85
10706;BME280;5404;42.656;23.336;2024-02-21T12:04:31;95306.50;;;9.46;46.15
10706;BME280;5404;42.656;23.336;2024-02-21T12:06:58;95299.50;;;9.48;46.79
10706;BME280;5404;42.656;23.336;2024-02-21T12:09:24;95295.63;;;9.31;47.44
10706;BME280;5404;42.656;23.336;2024-02-21T12:12:06;95299.13;;;9.25;47.36
10706;BME280;5404;42.656;23.336;2024-02-21T12:14:33;95297.19;;;9.00;47.98
10706;BME280;5404;42.656;23.336;2024-02-21T12:17:00;95283.97;;;8.88;47.83
10706;BME280;5404;42.656;23.336;2024-02-21T12:19:28;95277.78;;;8.95;48.78
10706;BME280;5404;42.656;23.336;2024-02-21T12:21:54;95284.34;;;8.97;48.31
10706;BME280;5404;42.656;23.336;2024-02-21T12:24:26;95279.31;;;8.92;48.90
10706;BME280;5404;42.656;23.336;2024-02-21T12:26:53;95286.31;;;8.93;50.14
10706;BME280;5404;42.656;23.336;2024-02-21T12:29:22;95274.63;;;8.75;50.40
10706;BME280;5404;42.656;23.336;2024-02-21T12:31:51;95283.19;;;8.77;50.51
10706;BME280;5404;42.656;23.336;2024-02-21T12:34:16;95294.78;;;8.67;50.11
10706;BME280;5404;42.656;23.336;2024-02-21T12:36:43;95280.03;;;8.50;49.78
10706;BME280;5404;42.656;23.336;2024-02-21T12:39:10;95273.75;;;8.32;49.98
10706;BME280;5404;42.656;23.336;2024-02-21T12:41:36;95283.84;;;8.39;50.39
10706;BME280;5404;42.656;23.336;2024-02-21T12:44:04;95277.66;;;8.42;50.93
10706;BME280;5404;42.656;23.336;2024-02-21T12:46:32;95281.56;;;8.48;49.98
10706;BME280;5404;42.656;23.336;2024-02-21T12:48:58;95284.72;;;8.64;49.32
10706;BME280;5404;42.656;23.336;2024-02-21T12:51:23;95273.81;;;8.60;49.89
10706;BME280;5404;42.656;23.336;2024-02-21T12:53:49;95269.91;;;8.47;49.54
10706;BME280;5404;42.656;23.336;2024-02-21T12:56:15;95264.06;;;8.35;49.47
10706;BME280;5404;42.656;23.336;2024-02-21T12:58:41;95271.09;;;8.43;49.91
10706;BME280;5404;42.656;23.336;2024-02-21T13:01:06;95269.16;;;8.61;49.44
10706;BME280;5404;42.656;23.336;2024-02-21T13:03:32;95269.16;;;8.61;49.22
10706;BME280;5404;42.656;23.336;2024-02-21T13:05:57;95259.47;;;8.74;49.03
10706;BME280;5404;42.656;23.336;2024-02-21T13:08:24;95248.25;;;8.72;49.21
10706;BME280;5404;42.656;23.336;2024-02-21T13:10:50;95208.25;;;8.55;49.95